createdAt,value
2022-11-29T00:03:07.772Z,100251.75
2022-11-29T00:08:10.840Z,100250.78
2022-11-29T00:13:13.756Z,100255.84
2022-11-29T00:18:17.866Z,100245.09
2022-11-29T00:23:20.636Z,100253.16
2022-11-29T00:28:23.420Z,100250.50
2022-11-29T00:33:27.805Z,100260.19
2022-11-29T00:38:30.573Z,100262.78
2022-11-29T00:43:33.468Z,100249.34
2022-11-29T00:48:38.100Z,100247.75
2022-11-29T00:53:41.367Z,100248.69
2022-11-29T00:58:44.332Z,100252.00
2022-11-29T01:03:48.435Z,100257.91
2022-11-29T01:08:51.211Z,100259.84
2022-11-29T01:13:57.226Z,100257.25
2022-11-29T01:19:01.590Z,100254.41
2022-11-29T01:24:04.639Z,100253.56
2022-11-29T01:29:07.790Z,100257.06
2022-11-29T01:34:12.574Z,100256.41
2022-11-29T01:39:15.409Z,100258.97
2022-11-29T01:44:55.520Z,100258.03
2022-11-29T01:50:00.391Z,100268.69
2022-11-29T01:55:06.756Z,100277.53
2022-11-29T02:00:13.169Z,100286.25
2022-11-29T02:05:19.616Z,100288.00
2022-11-29T02:10:30.847Z,100283.06
2022-11-29T02:15:42.530Z,100278.31
2022-11-29T02:21:04.455Z,100285.25
2022-11-29T02:26:26.818Z,100284.88
2022-11-29T02:31:50.348Z,100292.75
2022-11-29T02:37:11.678Z,100296.28
2022-11-29T02:42:55.599Z,100297.72
2022-11-29T02:48:15.482Z,100300.19
2022-11-29T02:53:27.709Z,100303.72
2022-11-29T02:58:37.841Z,100309.03
2022-11-29T03:03:47.540Z,100316.19
2022-11-29T03:09:00.644Z,100322.38
2022-11-29T03:14:15.535Z,100319.91
2022-11-29T03:19:36.036Z,100333.50
2022-11-29T03:24:46.244Z,100337.78
2022-11-29T03:29:55.175Z,100333.63
2022-11-29T03:35:07.971Z,100335.41
2022-11-29T03:40:13.809Z,100342.25
2022-11-29T03:45:24.688Z,100351.13
2022-11-29T03:50:34.688Z,100348.38
2022-11-29T03:55:53.547Z,100352.72
2022-11-29T04:01:31.796Z,100355.59
2022-11-29T04:06:48.524Z,100355.59
2022-11-29T04:12:22.059Z,100353.31
2022-11-29T04:17:43.524Z,100355.19
2022-11-29T04:23:26.047Z,100357.69
2022-11-29T04:29:09.648Z,100353.31
2022-11-29T04:34:47.409Z,100360.53
2022-11-29T04:40:02.906Z,100376.44
2022-11-29T04:45:54.689Z,100378.81
2022-11-29T04:51:09.996Z,100381.28
2022-11-29T04:56:21.451Z,100383.09
2022-11-29T05:01:34.009Z,100393.00
2022-11-29T05:06:45.955Z,100398.31
2022-11-29T05:11:58.838Z,100396.53
2022-11-29T05:17:22.339Z,100398.97
2022-11-29T05:22:32.645Z,100410.13
2022-11-29T05:27:47.007Z,100409.75
2022-11-29T05:32:58.550Z,100406.50
2022-11-29T05:38:09.465Z,100409.06
2022-11-29T05:43:26.167Z,100419.34
2022-11-29T05:48:44.948Z,100420.78
2022-11-29T05:53:58.471Z,100428.00
2022-11-29T05:59:05.132Z,100434.94
2022-11-29T06:04:17.133Z,100438.47
2022-11-29T06:09:27.235Z,100446.53
2022-11-29T06:14:59.092Z,100447.69
2022-11-29T06:20:26.332Z,100458.75
2022-11-29T06:25:47.068Z,100465.19
2022-11-29T06:31:00.613Z,100468.81
2022-11-29T06:36:16.884Z,100465.19
2022-11-29T06:41:21.839Z,100483.50
2022-11-29T06:46:35.350Z,100482.38
2022-11-29T06:51:49.308Z,100484.84
2022-11-29T06:57:01.280Z,100493.88
2022-11-29T07:02:22.357Z,100497.50
2022-11-29T07:07:27.274Z,100496.47
2022-11-29T07:12:30.697Z,100506.94
2022-11-29T07:17:44.396Z,100507.41
2022-11-29T07:22:59.576Z,100517.94
2022-11-29T07:28:12.361Z,100516.00
2022-11-29T07:33:19.917Z,100510.16
2022-11-29T07:38:31.590Z,100511.03
2022-11-29T07:43:46.597Z,100517.44
2022-11-29T07:48:49.344Z,100523.84
2022-11-29T07:53:53.904Z,100530.63
2022-11-29T07:58:56.696Z,100541.09
2022-11-29T08:03:59.621Z,100543.97
2022-11-29T08:09:05.395Z,100545.97
2022-11-29T08:14:08.126Z,100545.09
2022-11-29T08:19:10.872Z,100545.00
2022-11-29T08:24:15.035Z,100549.69
2022-11-29T08:29:18.229Z,100558.16
2022-11-29T08:34:21.438Z,100554.63
2022-11-29T08:39:25.531Z,100565.38
2022-11-29T08:44:28.427Z,100565.69
2022-11-29T08:49:31.211Z,100565.13
2022-11-29T08:54:35.727Z,100571.78
2022-11-29T08:59:38.474Z,100583.91
2022-11-29T09:04:41.246Z,100583.72
2022-11-29T09:09:45.381Z,100583.63
2022-11-29T09:14:48.164Z,100594.28
2022-11-29T09:19:50.982Z,100591.44
2022-11-29T09:24:55.071Z,100600.53
2022-11-29T09:29:57.864Z,100607.09
2022-11-29T09:35:00.618Z,100615.69
2022-11-29T09:40:05.773Z,100622.56
2022-11-29T09:45:11.822Z,100623.34
2022-11-29T09:50:25.477Z,100628.22
2022-11-29T09:55:48.382Z,100635.47
2022-11-29T10:00:53.127Z,100636.22
2022-11-29T10:05:59.629Z,100633.44
2022-11-29T10:11:14.763Z,100638.50
2022-11-29T10:16:25.954Z,100632.06
2022-11-29T10:21:35.835Z,100629.44
2022-11-29T10:26:40.103Z,100633.28
2022-11-29T10:31:49.181Z,100631.53
2022-11-29T10:36:54.715Z,100629.72
2022-11-29T10:42:03.762Z,100633.41
2022-11-29T10:47:10.903Z,100632.94
2022-11-29T10:52:20.519Z,100635.69
2022-11-29T10:57:25.229Z,100643.91
2022-11-29T11:02:28.632Z,100643.63
2022-11-29T11:07:35.099Z,100633.63
2022-11-29T11:12:39.305Z,100639.06
2022-11-29T11:17:56.531Z,100635.44
2022-11-29T11:23:02.112Z,100632.81
2022-11-29T11:28:20.403Z,100642.09
2022-11-29T11:33:27.012Z,100633.38
2022-11-29T11:38:30.496Z,100634.81
2022-11-29T11:43:35.711Z,100638.03
2022-11-29T11:48:41.891Z,100643.53
2022-11-29T11:53:52.126Z,100645.28
2022-11-29T11:58:58.826Z,100644.41
2022-11-29T12:04:06.771Z,100657.56
2022-11-29T12:09:19.311Z,100654.88
2022-11-29T12:14:34.111Z,100658.44
2022-11-29T12:19:44.205Z,100656.16
2022-11-29T12:24:56.080Z,100665.22
2022-11-29T12:30:00.254Z,100664.28
2022-11-29T12:35:35.025Z,100674.69
2022-11-29T12:40:47.400Z,100679.22
2022-11-29T12:45:58.526Z,100676.34
2022-11-29T12:51:09.433Z,100682.88
2022-11-29T12:56:16.942Z,100691.84
2022-11-29T13:01:30.979Z,100685.28
2022-11-29T13:06:40.427Z,100696.47
2022-11-29T13:11:53.897Z,100695.63
2022-11-29T13:17:02.151Z,100700.00
2022-11-29T13:22:11.815Z,100701.81
2022-11-29T13:27:18.776Z,100705.84
2022-11-29T13:32:35.131Z,100707.09
2022-11-29T13:37:48.366Z,100706.81
2022-11-29T13:43:02.200Z,100711.97
2022-11-29T13:48:27.850Z,100704.84
2022-11-29T13:53:48.614Z,100711.91
2022-11-29T13:58:54.713Z,100710.91
2022-11-29T14:04:07.919Z,100721.06
2022-11-29T14:09:26.881Z,100719.31
2022-11-29T14:14:35.264Z,100720.88
2022-11-29T14:19:39.435Z,100728.03
2022-11-29T14:24:43.186Z,100725.34
2022-11-29T14:29:54.555Z,100726.97
2022-11-29T14:35:04.709Z,100727.63
2022-11-29T14:40:21.858Z,100731.28
2022-11-29T14:45:27.872Z,100727.63
2022-11-29T14:50:37.504Z,100728.47
2022-11-29T14:55:40.395Z,100734.59
2022-11-29T15:01:09.859Z,100741.69
2022-11-29T15:06:24.037Z,100739.94
2022-11-29T15:11:43.078Z,100743.66
2022-11-29T15:16:59.412Z,100745.97
2022-11-29T15:22:11.697Z,100747.41
2022-11-29T15:27:14.527Z,100743.41
2022-11-29T15:32:23.391Z,100744.34
2022-11-29T15:37:44.484Z,100746.16
2022-11-29T15:42:50.748Z,100748.94
2022-11-29T15:47:54.044Z,100747.13
2022-11-29T15:53:02.058Z,100749.22
2022-11-29T15:58:08.856Z,100751.50
2022-11-29T16:03:20.930Z,100755.47
2022-11-29T16:08:35.408Z,100758.47
2022-11-29T16:13:40.381Z,100763.31
2022-11-29T16:18:44.680Z,100776.84
2022-11-29T16:23:49.196Z,100769.38
2022-11-29T16:28:54.391Z,100783.03
2022-11-29T16:33:57.746Z,100780.16
2022-11-29T16:39:06.551Z,100784.84
2022-11-29T16:44:45.446Z,100790.31
2022-11-29T16:50:10.644Z,100792.69
2022-11-29T16:55:13.772Z,100792.75
2022-11-29T17:00:26.047Z,100789.53
2022-11-29T17:05:30.359Z,100794.53
2022-11-29T17:10:33.271Z,100796.50
2022-11-29T17:15:36.096Z,100798.72
2022-11-29T17:20:40.297Z,100809.09
2022-11-29T17:25:43.132Z,100812.81
2022-11-29T17:30:45.987Z,100815.53
2022-11-29T17:35:50.138Z,100820.19
2022-11-29T17:40:52.961Z,100819.28
2022-11-29T17:45:55.769Z,100813.97
2022-11-29T17:51:01.864Z,100823.38
2022-11-29T17:56:06.204Z,100825.78
2022-11-29T18:01:11.172Z,100827.50
2022-11-29T18:06:17.428Z,100829.25
2022-11-29T18:11:21.965Z,100829.47
2022-11-29T18:16:26.623Z,100828.44
2022-11-29T18:21:31.519Z,100838.28
2022-11-29T18:26:36.200Z,100835.59
2022-11-29T18:31:41.023Z,100844.38
2022-11-29T18:36:47.358Z,100847.06
2022-11-29T18:41:51.543Z,100849.72
2022-11-29T18:46:54.374Z,100841.72
2022-11-29T18:51:58.475Z,100846.88
2022-11-29T18:57:01.332Z,100860.16
2022-11-29T19:02:04.118Z,100854.88
2022-11-29T19:07:08.271Z,100857.94
2022-11-29T19:12:11.044Z,100849.63
2022-11-29T19:17:13.805Z,100852.28
2022-11-29T19:22:18.010Z,100861.28
2022-11-29T19:27:21.235Z,100858.34
2022-11-29T19:32:24.008Z,100867.41
2022-11-29T19:37:28.206Z,100867.41
2022-11-29T19:42:31.089Z,100860.19
2022-11-29T19:47:33.894Z,100863.53
2022-11-29T19:52:38.184Z,100865.78
2022-11-29T19:57:40.993Z,100866.47
2022-11-29T20:02:43.862Z,100872.31
2022-11-29T20:07:48.125Z,100874.56
2022-11-29T20:12:51.155Z,100873.09
2022-11-29T20:17:54.349Z,100879.06
2022-11-29T20:22:58.699Z,100881.56
2022-11-29T20:28:01.480Z,100877.38
2022-11-29T20:33:05.100Z,100884.53
2022-11-29T20:38:19.964Z,100890.72
2022-11-29T20:43:38.888Z,100889.47
2022-11-29T20:48:42.136Z,100888.59
2022-11-29T20:53:48.428Z,100889.03
2022-11-29T20:58:51.388Z,100893.94
2022-11-29T21:03:54.256Z,100897.16
2022-11-29T21:08:58.474Z,100904.50
2022-11-29T21:14:03.969Z,100897.28
2022-11-29T21:19:07.279Z,100896.34
2022-11-29T21:24:27.833Z,100891.56
2022-11-29T21:29:31.225Z,100890.44
2022-11-29T21:34:34.807Z,100890.63
2022-11-29T21:39:39.236Z,100903.56
2022-11-29T21:44:42.008Z,100899.94
2022-11-29T21:49:46.282Z,100907.28
2022-11-29T21:54:50.684Z,100902.00
2022-11-29T21:59:53.747Z,100907.19
2022-11-29T22:04:56.546Z,100910.56
2022-11-29T22:10:08.557Z,100915.38
2022-11-29T22:15:19.055Z,100923.50
2022-11-29T22:20:24.390Z,100922.91
2022-11-29T22:25:28.535Z,100927.47
2022-11-29T22:30:31.276Z,100923.66
2022-11-29T22:35:34.024Z,100928.25
2022-11-29T22:40:38.304Z,100937.34
2022-11-29T22:45:41.075Z,100936.03
2022-11-29T22:50:43.841Z,100935.78
2022-11-29T22:55:47.924Z,100941.13
2022-11-29T23:00:50.728Z,100946.78
2022-11-29T23:05:53.554Z,100952.41
2022-11-29T23:10:58.236Z,100944.50
2022-11-29T23:16:01.595Z,100949.44
2022-11-29T23:21:07.319Z,100951.94
2022-11-29T23:26:18.427Z,100955.16
2022-11-29T23:31:22.465Z,100954.63
2022-11-29T23:36:25.242Z,100951.91
2022-11-29T23:41:29.325Z,100952.69
2022-11-29T23:46:32.160Z,100944.41
2022-11-29T23:51:34.947Z,100945.25
2022-11-29T23:56:39.083Z,100951.53
